Flyvær

METAR 010850Z 09019KT CAVOK M02/M11 Q1044 NOSIGTAF 010500Z 0106/0206 09025KT 9999 FEW040 SCT080

 

Reklamer